createdAt,value
2019-01-26T00:00:28.638Z,76.12
2019-01-26T00:01:27.165Z,76.34
2019-01-26T00:02:25.777Z,76.54
2019-01-26T00:03:24.354Z,76.06
2019-01-26T00:04:22.916Z,75.96
2019-01-26T00:05:21.766Z,76.12
2019-01-26T00:06:20.281Z,75.96
2019-01-26T00:07:18.889Z,76.06
2019-01-26T00:08:17.655Z,76.15
2019-01-26T00:09:16.274Z,75.93
2019-01-26T00:10:14.829Z,75.93
2019-01-26T00:11:13.494Z,75.64
2019-01-26T00:12:12.271Z,76.06
2019-01-26T00:13:10.826Z,76.15
2019-01-26T00:14:09.628Z,75.96
2019-01-26T00:15:08.179Z,75.59
2019-01-26T00:16:06.746Z,75.64
2019-01-26T00:17:05.262Z,75.59
2019-01-26T00:18:03.895Z,75.78
2019-01-26T00:19:02.474Z,75.96
2019-01-26T00:20:01.024Z,75.11
2019-01-26T00:20:59.553Z,75.45
2019-01-26T00:21:58.115Z,74.98
2019-01-26T00:22:57.478Z,75.64
2019-01-26T00:23:56.015Z,75.68
2019-01-26T00:24:54.551Z,75.87
2019-01-26T00:25:53.091Z,75.59
2019-01-26T00:26:51.934Z,75.64
2019-01-26T00:27:50.525Z,75.21
2019-01-26T00:28:49.215Z,75.02
2019-01-26T00:29:47.862Z,75.49
2019-01-26T00:30:46.420Z,74.73
2019-01-26T00:31:44.943Z,75.02
2019-01-26T00:32:43.650Z,74.92
2019-01-26T00:33:43.358Z,75.21
2019-01-26T00:34:40.831Z,75.31
2019-01-26T00:35:39.672Z,75.02
2019-01-26T00:36:38.278Z,75.02
2019-01-26T00:37:36.824Z,75.02
2019-01-26T00:38:35.618Z,74.92
2019-01-26T00:39:34.936Z,74.92
2019-01-26T00:40:33.608Z,75.31
2019-01-26T00:41:32.292Z,74.92
2019-01-26T00:42:30.829Z,75.36
2019-01-26T00:43:29.364Z,75.11
2019-01-26T00:44:27.915Z,75.11
2019-01-26T00:45:26.470Z,75.4
2019-01-26T00:46:28.426Z,75.31
2019-01-26T00:47:23.861Z,75.02
2019-01-26T00:48:22.423Z,75.4
2019-01-26T00:49:21.148Z,75.21
2019-01-26T00:50:19.980Z,75.49
2019-01-26T00:51:18.520Z,74.83
2019-01-26T00:52:17.091Z,74.73
2019-01-26T00:53:15.964Z,74.83
2019-01-26T00:54:14.508Z,74.83
2019-01-26T00:55:13.061Z,74.92
2019-01-26T00:56:11.843Z,74.69
2019-01-26T00:57:10.526Z,75.49
2019-01-26T00:58:09.071Z,75.31
2019-01-26T00:59:07.640Z,75.02
2019-01-26T01:00:06.167Z,74.83
2019-01-26T01:01:04.733Z,74.92
2019-01-26T01:02:03.595Z,75.02
2019-01-26T01:03:02.466Z,75.31
2019-01-26T01:04:01.012Z,74.92
2019-01-26T01:04:59.629Z,75.02
2019-01-26T01:05:58.177Z,75.31
2019-01-26T01:06:56.744Z,74.88
2019-01-26T01:07:55.317Z,75.02
2019-01-26T01:08:53.809Z,75.07
2019-01-26T01:09:52.872Z,75.68
2019-01-26T01:10:51.536Z,75.49
2019-01-26T01:11:50.238Z,75.68
2019-01-26T01:12:48.828Z,75.78
2019-01-26T01:13:47.381Z,75.31
2019-01-26T01:14:46.017Z,74.92
2019-01-26T01:15:45.338Z,75.49
2019-01-26T01:16:43.856Z,75.31
2019-01-26T01:17:42.417Z,74.64
2019-01-26T01:18:40.938Z,74.83
2019-01-26T01:19:39.466Z,74.92
2019-01-26T01:20:38.195Z,75.07
2019-01-26T01:21:36.782Z,75.55
2019-01-26T01:22:35.420Z,75.96
2019-01-26T01:23:34.256Z,75.87
2019-01-26T01:24:32.769Z,76.06
2019-01-26T01:25:31.341Z,75.96
2019-01-26T01:26:29.934Z,75.64
2019-01-26T01:27:28.484Z,75.84
2019-01-26T01:28:27.045Z,76.03
2019-01-26T01:29:25.615Z,76.12
2019-01-26T01:30:24.183Z,76.31
2019-01-26T01:31:22.725Z,76.06
2019-01-26T01:32:21.532Z,76.06
2019-01-26T01:33:20.283Z,76.15
2019-01-26T01:34:18.845Z,76.15
2019-01-26T01:35:17.468Z,75.96
2019-01-26T01:36:16.093Z,76.25
2019-01-26T01:37:14.651Z,75.96
2019-01-26T01:38:13.189Z,75.96
2019-01-26T01:39:11.747Z,75.96
2019-01-26T01:40:10.289Z,75.78
2019-01-26T01:41:08.838Z,76.25
2019-01-26T01:42:07.715Z,76.15
2019-01-26T01:43:06.316Z,75.96
2019-01-26T01:44:04.854Z,76.63
2019-01-26T01:45:03.591Z,76.82
2019-01-26T01:46:02.230Z,76.44
2019-01-26T01:47:00.775Z,76.34
2019-01-26T01:47:59.324Z,76.44
2019-01-26T01:48:57.875Z,76.82
2019-01-26T01:49:56.432Z,77.01
2019-01-26T01:50:54.983Z,76.82
2019-01-26T01:51:53.520Z,76.92
2019-01-26T01:52:52.270Z,76.92
2019-01-26T01:53:50.802Z,76.44
2019-01-26T01:54:49.429Z,76.44
2019-01-26T01:55:48.226Z,76.25
2019-01-26T01:56:46.769Z,76.34
2019-01-26T01:57:45.310Z,76.34
2019-01-26T01:58:44.032Z,77.11
2019-01-26T01:59:42.573Z,77.2
2019-01-26T02:00:41.125Z,77.29
2019-01-26T02:01:39.674Z,77.29
2019-01-26T02:02:38.192Z,76.92
2019-01-26T02:03:36.734Z,77.11
2019-01-26T02:04:35.537Z,77.11
2019-01-26T02:05:34.292Z,76.92
2019-01-26T02:06:32.824Z,76.92
2019-01-26T02:07:31.486Z,77.2
2019-01-26T02:08:30.098Z,77.11
2019-01-26T02:09:28.682Z,77.11
2019-01-26T02:10:27.218Z,76.73
2019-01-26T02:11:25.763Z,77.01
2019-01-26T02:12:24.315Z,77.11
2019-01-26T02:13:23.583Z,76.92
2019-01-26T02:14:22.220Z,77.29
2019-01-26T02:15:20.765Z,77.48
2019-01-26T02:16:19.323Z,77.86
2019-01-26T02:17:17.938Z,78.62
2019-01-26T02:18:16.500Z,78.43
2019-01-26T02:19:15.070Z,78.34
2019-01-26T02:20:13.970Z,78.15
2019-01-26T02:21:12.529Z,78.62
2019-01-26T02:22:11.089Z,78.72
2019-01-26T02:23:09.739Z,79
2019-01-26T02:24:08.591Z,78.91
2019-01-26T02:25:07.134Z,79
2019-01-26T02:26:05.946Z,79
2019-01-26T02:27:04.509Z,79
2019-01-26T02:28:03.178Z,79.1
2019-01-26T02:29:01.822Z,79.85
2019-01-26T02:30:00.501Z,79.57
2019-01-26T02:30:59.072Z,79.57
2019-01-26T02:31:57.638Z,79.85
2019-01-26T02:32:56.182Z,80.43
2019-01-26T02:33:54.733Z,80.43
2019-01-26T02:34:53.595Z,80.71
2019-01-26T02:35:52.334Z,80.8
2019-01-26T02:36:51.315Z,80.43
2019-01-26T02:37:50.044Z,80.71
2019-01-26T02:38:48.568Z,80.9
2019-01-26T02:39:47.131Z,80.9
2019-01-26T02:40:45.966Z,80.99
2019-01-26T02:41:44.514Z,81.09
2019-01-26T02:42:43.065Z,81.62
2019-01-26T02:43:41.681Z,81.75
2019-01-26T02:44:40.226Z,81.85
2019-01-26T02:45:38.786Z,81.75
2019-01-26T02:46:38.194Z,81.94
2019-01-26T02:47:36.776Z,82.04
2019-01-26T02:49:37.508Z,81.47
2019-01-26T02:50:36.224Z,81.47
2019-01-26T02:51:34.752Z,81.56
2019-01-26T02:52:33.285Z,81.47
2019-01-26T02:53:31.843Z,81.75
2019-01-26T02:54:30.388Z,81.94
2019-01-26T02:55:28.920Z,81.47
2019-01-26T02:56:27.823Z,81.66
2019-01-26T02:57:26.568Z,81.94
2019-01-26T02:58:25.135Z,82.13
2019-01-26T02:59:23.788Z,81.75
2019-01-26T03:00:22.382Z,81.56
2019-01-26T03:01:20.937Z,81.94
2019-01-26T03:02:19.514Z,82.6
2019-01-26T03:03:18.173Z,82.79
2019-01-26T03:04:16.747Z,82.6
2019-01-26T03:05:15.447Z,83.17
2019-01-26T03:06:14.137Z,82.6
2019-01-26T03:07:12.688Z,82.98
2019-01-26T03:08:11.279Z,83.74
2019-01-26T03:09:10.223Z,83.17
2019-01-26T03:10:08.795Z,84.03
2019-01-26T03:11:07.521Z,84.31
2019-01-26T03:12:06.234Z,83.94
2019-01-26T03:13:04.760Z,83.94
2019-01-26T03:14:03.393Z,83.84
2019-01-26T03:16:43.999Z,84.31
2019-01-26T03:17:42.579Z,84.5
2019-01-26T03:18:41.128Z,85.36
2019-01-26T03:19:39.875Z,84.78
2019-01-26T03:20:38.437Z,85.17
2019-01-26T03:21:36.989Z,85.36
2019-01-26T03:22:35.552Z,84.88
2019-01-26T03:23:34.145Z,85.07
2019-01-26T03:24:32.691Z,84.88
2019-01-26T03:25:31.256Z,85.83
2019-01-26T03:26:29.915Z,85.83
2019-01-26T03:27:28.468Z,85.93
2019-01-26T03:28:27.065Z,85.64
2019-01-26T03:45:17.742Z,87.4
2019-01-26T03:46:16.472Z,87.87
2019-01-26T03:47:15.011Z,88.68
2019-01-26T03:48:13.631Z,88.01
2019-01-26T03:49:12.168Z,87.73
2019-01-26T03:50:10.710Z,88.1
2019-01-26T03:51:09.262Z,87.92
2019-01-26T03:52:07.819Z,88.1
2019-01-26T03:53:06.364Z,88.01
2019-01-26T03:54:04.899Z,88.29
2019-01-26T03:55:03.784Z,88.63
2019-01-26T03:56:02.392Z,88.63
2019-01-26T03:57:00.937Z,88.87
2019-01-26T03:57:59.568Z,88.87
2019-01-26T03:58:58.259Z,88.92
2019-01-26T03:59:56.786Z,89.2
2019-01-26T04:00:55.333Z,89.43
2019-01-26T04:01:53.940Z,89.39
2019-01-26T04:02:52.549Z,89.39
2019-01-26T04:03:51.174Z,89.48
2019-01-26T04:04:49.633Z,90.05
2019-01-26T04:05:48.234Z,90.1
2019-01-26T04:06:46.782Z,89.91
2019-01-26T04:07:45.545Z,90.1
2019-01-26T04:08:44.227Z,90
2019-01-26T04:09:42.780Z,89.96
2019-01-26T04:10:41.389Z,90.34
2019-01-26T04:11:40.083Z,90.38
2019-01-26T04:12:38.619Z,90.67
2019-01-26T04:13:37.161Z,90.86
2019-01-26T04:14:35.700Z,90.95
2019-01-26T04:15:34.499Z,90.86
2019-01-26T04:16:33.068Z,90.57
2019-01-26T04:17:31.729Z,91.05
2019-01-26T04:18:30.352Z,91.14
2019-01-26T04:19:28.894Z,91.61
2019-01-26T04:20:27.537Z,92.28
2019-01-26T04:21:26.271Z,92.28
2019-01-26T04:22:24.857Z,92.85
2019-01-26T04:23:23.477Z,93.32
2019-01-26T04:24:22.186Z,93.56
2019-01-26T04:25:20.729Z,93.61
2019-01-26T04:26:19.328Z,93.23
2019-01-26T04:27:17.849Z,92.94
2019-01-26T04:28:16.433Z,94.18
2019-01-26T04:29:15.022Z,94.27
2019-01-26T04:30:13.669Z,94.37
2019-01-26T04:31:12.344Z,94.65
2019-01-26T04:32:10.880Z,94.84
2019-01-26T04:33:09.437Z,94.37
2019-01-26T04:34:07.981Z,94.18
2019-01-26T04:35:06.549Z,94.46
2019-01-26T04:36:06.142Z,94.46
2019-01-26T04:37:03.675Z,94.84
2019-01-26T04:38:02.278Z,94.84
2019-01-26T04:39:01.039Z,94.74
2019-01-26T04:39:59.843Z,94.65
2019-01-26T04:40:58.378Z,94.65
2019-01-26T04:41:56.921Z,94.84
2019-01-26T04:42:55.470Z,94.84
2019-01-26T04:43:54.098Z,94.65
2019-01-26T04:44:52.651Z,94.65
2019-01-26T04:45:51.180Z,94.84
2019-01-26T04:46:49.748Z,94.18
2019-01-26T04:47:48.269Z,94.84
2019-01-26T04:48:46.848Z,94.93
2019-01-26T04:49:45.429Z,94.46
2019-01-26T04:50:44.082Z,94.46
2019-01-26T04:51:42.821Z,94.18
2019-01-26T04:52:41.506Z,94.18
2019-01-26T04:53:40.196Z,94.46
2019-01-26T04:54:38.744Z,93.8
2019-01-26T04:55:37.283Z,93.8
2019-01-26T04:56:35.960Z,94.56
2019-01-26T04:57:34.769Z,93.89
2019-01-26T04:58:33.381Z,94.08
2019-01-26T04:59:32.137Z,94.08
2019-01-26T05:00:30.698Z,93.7
2019-01-26T05:01:29.225Z,93.99
2019-01-26T05:02:27.900Z,93.8
2019-01-26T05:03:26.460Z,94.08
2019-01-26T05:04:25.004Z,94.46
2019-01-26T05:05:23.622Z,94.08
2019-01-26T05:06:22.310Z,94.46
2019-01-26T05:07:20.861Z,93.89
2019-01-26T05:08:19.791Z,93.89
2019-01-26T05:09:18.452Z,93.51
2019-01-26T05:10:18.006Z,93.61
2019-01-26T05:11:16.533Z,93.32
2019-01-26T05:12:15.082Z,93.23
2019-01-26T05:13:13.635Z,93.23
2019-01-26T05:14:12.166Z,92.66
2019-01-26T05:15:10.706Z,93.13
2019-01-26T05:16:09.579Z,93.32
2019-01-26T05:17:08.260Z,93.13
2019-01-26T05:18:06.819Z,93.13
2019-01-26T05:19:05.464Z,93.41
2019-01-26T05:20:04.275Z,93.32
2019-01-26T05:21:02.809Z,93.23
2019-01-26T05:22:01.691Z,92.66
2019-01-26T05:23:00.351Z,93.23
2019-01-26T05:23:58.896Z,92.85
2019-01-26T05:24:57.613Z,93.04
2019-01-26T05:25:56.230Z,92.94
2019-01-26T05:26:54.791Z,93.7
2019-01-26T05:27:53.321Z,93.61
2019-01-26T05:28:51.900Z,93.89
2019-01-26T05:29:50.447Z,94.27
2019-01-26T05:30:48.991Z,93.99
2019-01-26T05:31:47.716Z,94.08
2019-01-26T05:32:46.262Z,94.18
2019-01-26T05:33:44.802Z,93.89
2019-01-26T05:34:43.610Z,94.18
2019-01-26T05:35:42.195Z,93.8
2019-01-26T05:36:40.741Z,93.61
2019-01-26T05:37:39.439Z,93.61
2019-01-26T05:38:38.027Z,93.41
2019-01-26T05:39:36.588Z,94.27
2019-01-26T05:40:35.140Z,94.18
2019-01-26T05:41:34.033Z,93.89
2019-01-26T05:42:32.582Z,94.18
2019-01-26T05:43:31.188Z,94.18
2019-01-26T05:44:29.841Z,93.99
2019-01-26T05:45:28.462Z,94.08
2019-01-26T05:46:27.044Z,94.08
2019-01-26T05:47:25.584Z,94.46
2019-01-26T05:48:24.137Z,94.56
2019-01-26T05:49:22.759Z,95.03
2019-01-26T05:50:21.584Z,94.65
2019-01-26T05:51:20.130Z,94.65
2019-01-26T05:52:18.679Z,94.56
2019-01-26T05:53:17.219Z,94.93
2019-01-26T05:54:16.049Z,94.32
2019-01-26T05:55:14.838Z,94.32
2019-01-26T05:56:13.697Z,94.27
2019-01-26T05:57:12.421Z,94.37
2019-01-26T05:58:10.970Z,94.74
2019-01-26T05:59:09.665Z,94.65
2019-01-26T06:00:08.281Z,95.31
2019-01-26T06:01:06.849Z,95.41
2019-01-26T06:02:05.370Z,95.6
2019-01-26T06:03:03.928Z,95.5
2019-01-26T06:04:02.473Z,95.31
2019-01-26T06:05:01.002Z,94.98
2019-01-26T06:05:59.873Z,95.27
2019-01-26T06:06:58.440Z,94.89
2019-01-26T06:07:57.042Z,95.55
2019-01-26T06:08:55.740Z,95.88
2019-01-26T06:09:54.426Z,95.93
2019-01-26T06:10:52.959Z,95.36
2019-01-26T06:11:51.989Z,95.6
2019-01-26T06:12:50.539Z,95.74
2019-01-26T06:13:49.049Z,95.46
2019-01-26T06:14:47.827Z,95.65
2019-01-26T06:15:46.518Z,95.46
2019-01-26T06:16:45.053Z,95.46
2019-01-26T06:17:43.625Z,95.93
2019-01-26T06:18:42.362Z,95.93
2019-01-26T06:19:40.889Z,96.26
2019-01-26T06:20:39.605Z,96.12
2019-01-26T06:23:20.129Z,96.55
2019-01-26T06:24:18.684Z,96.73
2019-01-26T06:25:17.251Z,96.59
2019-01-26T06:26:15.791Z,96.73
2019-01-26T06:27:14.364Z,96.78
2019-01-26T06:28:12.920Z,96.69
2019-01-26T06:29:11.733Z,97.17
2019-01-26T06:30:10.352Z,96.78
2019-01-26T06:31:08.914Z,96.5
2019-01-26T06:32:07.588Z,96.22
2019-01-26T06:33:06.170Z,96.22
2019-01-26T06:34:04.729Z,96.59
2019-01-26T06:35:03.289Z,96.31
2019-01-26T06:36:02.065Z,95.84
2019-01-26T06:37:00.702Z,96.03
2019-01-26T06:37:59.322Z,96.22
2019-01-26T06:38:58.103Z,96.59
2019-01-26T06:39:56.659Z,96.5
2019-01-26T06:42:20.135Z,96.22
2019-01-26T06:43:18.928Z,96.41
2019-01-26T06:44:17.717Z,96.88
2019-01-26T06:45:16.377Z,96.31
2019-01-26T06:46:14.913Z,96.31
2019-01-26T06:47:13.549Z,96.31
2019-01-26T06:48:12.255Z,96.5
2019-01-26T06:49:10.840Z,97.07
2019-01-26T06:50:09.363Z,96.97
2019-01-26T06:51:08.105Z,96.78
2019-01-26T06:52:06.655Z,96.78
2019-01-26T06:53:05.350Z,96.97
2019-01-26T06:54:04.156Z,97.17
2019-01-26T06:55:02.706Z,97.45
2019-01-26T06:56:01.239Z,96.97
2019-01-26T06:56:59.889Z,96.88
2019-01-26T06:57:58.455Z,96.78
2019-01-26T06:58:57.002Z,96.59
2019-01-26T06:59:55.578Z,96.31
2019-01-26T07:00:54.276Z,96.5
2019-01-26T07:01:52.806Z,96.12
2019-01-26T07:02:51.566Z,96.22
2019-01-26T07:03:50.182Z,96.88
2019-01-26T07:04:48.718Z,96.88
2019-01-26T07:07:29.042Z,97.45
2019-01-26T07:08:27.725Z,96.97
2019-01-26T07:09:26.380Z,97.55
2019-01-26T07:10:24.969Z,97.74
2019-01-26T07:11:23.843Z,97.64
2019-01-26T07:12:22.758Z,98.11
2019-01-26T07:13:21.520Z,97.83
2019-01-26T07:14:20.245Z,97.74
2019-01-26T07:15:18.826Z,97.45
2019-01-26T07:16:17.508Z,97.55
2019-01-26T07:18:58.069Z,97.26
2019-01-26T07:19:56.617Z,97.64
2019-01-26T07:20:55.299Z,97.55
2019-01-26T07:21:54.082Z,97.07
2019-01-26T07:22:52.659Z,97.26
2019-01-26T07:23:51.194Z,97.55
2019-01-26T07:24:49.795Z,97.26
2019-01-26T07:25:48.349Z,97.17
2019-01-26T07:26:46.867Z,97.92
2019-01-26T07:27:45.710Z,97.74
2019-01-26T07:28:44.313Z,97.92
2019-01-26T07:29:42.866Z,98.02
2019-01-26T07:30:41.505Z,97.36
2019-01-26T07:31:40.342Z,97.07
2019-01-26T07:33:55.007Z,96.5
2019-01-26T07:34:53.810Z,96.31
2019-01-26T07:35:52.423Z,95.74
2019-01-26T07:36:51.031Z,96.69
2019-01-26T07:37:49.809Z,95.84
2019-01-26T07:38:48.424Z,96.03
2019-01-26T07:39:46.967Z,96.03
2019-01-26T07:40:45.514Z,96.12
2019-01-26T07:41:44.124Z,95.74
2019-01-26T07:42:42.653Z,95.74
2019-01-26T07:43:41.213Z,95.46
2019-01-26T07:44:39.962Z,95.65
2019-01-26T07:45:38.505Z,95.55
2019-01-26T07:46:37.158Z,95.36
2019-01-26T07:47:35.898Z,95.46
2019-01-26T07:48:34.544Z,95.07
2019-01-26T07:49:33.100Z,94.7
2019-01-26T07:50:31.666Z,94.7
2019-01-26T07:51:30.232Z,94.7
2019-01-26T07:52:28.769Z,94.23
2019-01-26T07:53:27.647Z,94.23
2019-01-26T07:54:26.322Z,94.18
2019-01-26T07:55:24.824Z,94.46
2019-01-26T07:56:23.493Z,94.13
2019-01-26T07:57:22.167Z,93.94
2019-01-26T07:58:20.721Z,93.99
2019-01-26T07:59:20.156Z,93.94
2019-01-26T08:00:18.361Z,94.32
2019-01-26T08:01:16.885Z,93.84
2019-01-26T08:02:15.572Z,94.32
2019-01-26T08:03:14.413Z,94.03
2019-01-26T08:04:12.935Z,94.08
2019-01-26T08:05:11.524Z,94.13
2019-01-26T08:06:10.213Z,94.08
2019-01-26T08:07:08.841Z,94.23
2019-01-26T08:08:07.666Z,94.03
2019-01-26T08:09:06.267Z,94.27
2019-01-26T08:10:04.832Z,93.89
2019-01-26T08:11:03.400Z,93.23
2019-01-26T08:12:01.953Z,93.41
2019-01-26T08:13:00.624Z,93.41
2019-01-26T08:13:59.201Z,93.41
2019-01-26T08:14:57.956Z,93.13
2019-01-26T08:15:56.490Z,93.04
2019-01-26T08:16:55.030Z,93.7
2019-01-26T08:17:53.814Z,93.51
2019-01-26T08:18:52.644Z,93.8
2019-01-26T08:19:51.161Z,94.56
2019-01-26T08:20:49.750Z,93.7
2019-01-26T08:21:48.318Z,93.41
2019-01-26T08:22:46.850Z,93.6
2019-01-26T08:23:45.593Z,93.32
2019-01-26T08:24:44.666Z,93.7
2019-01-26T08:25:42.766Z,93.7
2019-01-26T08:26:41.437Z,93.51
2019-01-26T08:27:40.162Z,93.41
2019-01-26T08:28:38.689Z,93.13
2019-01-26T08:29:37.317Z,92.94
2019-01-26T08:30:36.139Z,93.13
2019-01-26T08:31:34.670Z,93.23
2019-01-26T08:32:33.222Z,93.51
2019-01-26T08:33:32.145Z,93.32
2019-01-26T08:34:30.675Z,92.56
2019-01-26T08:35:29.395Z,92.28
2019-01-26T08:36:27.988Z,92.56
2019-01-26T08:37:26.551Z,92.75
2019-01-26T08:38:25.294Z,92.56
2019-01-26T08:39:24.174Z,93.41
2019-01-26T08:40:22.726Z,93.51
2019-01-26T08:41:21.398Z,93.7
2019-01-26T08:42:19.991Z,93.6
2019-01-26T08:43:18.527Z,93.51
2019-01-26T08:45:59.043Z,94.37
2019-01-26T08:46:57.732Z,93.89
2019-01-26T08:47:56.307Z,94.18
2019-01-26T08:48:54.874Z,93.8
2019-01-26T08:49:53.422Z,93.99
2019-01-26T08:50:51.988Z,94.08
2019-01-26T08:51:52.769Z,94.27
2019-01-26T09:11:33.135Z,96.93
2019-01-26T09:14:13.316Z,97.02
2019-01-26T09:17:52.589Z,97.41
2019-01-26T09:20:15.225Z,96.88
2019-01-26T09:21:13.859Z,96.03
2019-01-26T09:24:52.604Z,96.98
2019-01-26T09:25:51.215Z,96.98
2019-01-26T09:26:50.082Z,96.5
2019-01-26T09:30:11.671Z,98.16
2019-01-26T09:31:10.464Z,97.41
2019-01-26T09:32:09.009Z,97.55
2019-01-26T09:33:07.695Z,97.36
2019-01-26T09:34:06.286Z,96.69
2019-01-26T09:35:04.835Z,96.5
2019-01-26T09:36:03.723Z,95.75
2019-01-26T09:37:02.418Z,96.22
2019-01-26T09:38:01.022Z,96.88
2019-01-26T09:39:00.099Z,96.41
2019-01-26T09:39:59.228Z,96.98
2019-01-26T09:40:58.865Z,96.88
2019-01-26T09:41:58.352Z,97.07
2019-01-26T09:42:56.928Z,97.74
2019-01-26T09:53:06.850Z,95.94
2019-01-26T09:54:05.428Z,96.69
2019-01-26T09:55:04.206Z,96.22
2019-01-26T09:56:02.771Z,96.69
2019-01-26T09:58:42.822Z,95.41
2019-01-26T09:59:41.433Z,96.31
2019-01-26T10:00:40.298Z,96.41
2019-01-26T10:01:38.880Z,96.65
2019-01-26T10:02:37.537Z,96.08
2019-01-26T10:03:36.437Z,95.32
2019-01-26T10:04:35.450Z,95.6
2019-01-26T10:05:34.043Z,95.6
2019-01-26T10:06:32.908Z,95.32
2019-01-26T10:08:50.932Z,95.6
2019-01-26T10:09:49.642Z,95.7
2019-01-26T10:10:48.338Z,95.7
2019-01-26T10:11:46.912Z,95.7
2019-01-26T10:12:45.717Z,95.41
2019-01-26T10:13:44.420Z,95.51
2019-01-26T10:14:42.983Z,95.51
2019-01-26T10:15:41.694Z,95.6
2019-01-26T10:16:40.414Z,95.79
2019-01-26T10:17:45.351Z,95.6
2019-01-26T10:18:37.648Z,95.32
2019-01-26T10:19:36.206Z,95.41
2019-01-26T10:20:34.756Z,95.12
2019-01-26T10:21:33.331Z,94.93
2019-01-26T10:22:32.421Z,94.74
2019-01-26T10:23:31.912Z,94.65
2019-01-26T10:24:29.949Z,94.84
2019-01-26T10:25:28.556Z,94.93
2019-01-26T10:26:27.150Z,94.74
2019-01-26T10:27:25.712Z,94.56
2019-01-26T10:28:24.525Z,94.65
2019-01-26T10:29:23.135Z,95.22
2019-01-26T10:30:21.684Z,95.84
2019-01-26T10:31:20.262Z,95.79
2019-01-26T10:32:19.107Z,95.51
2019-01-26T10:33:17.846Z,95.03
2019-01-26T10:34:16.997Z,95.03
2019-01-26T10:35:15.794Z,94.37
2019-01-26T10:36:14.498Z,94.46
2019-01-26T10:37:13.008Z,94.56
2019-01-26T10:38:11.683Z,94.65
2019-01-26T10:39:10.701Z,94.08
2019-01-26T10:40:09.427Z,94.37
2019-01-26T10:41:08.202Z,94.37
2019-01-26T10:42:06.784Z,94.27
2019-01-26T10:43:05.464Z,93.7
2019-01-26T10:44:04.442Z,94.27
2019-01-26T10:45:03.039Z,94.27
2019-01-26T10:48:41.937Z,94.27
2019-01-26T10:49:40.503Z,94.65
2019-01-26T10:50:39.044Z,93.89
2019-01-26T10:51:37.704Z,94.08
2019-01-26T10:52:36.511Z,93.79
2019-01-26T10:53:35.239Z,93.32
2019-01-26T10:54:34.035Z,93.89
2019-01-26T10:55:32.567Z,93.7
2019-01-26T10:56:31.097Z,94.46
2019-01-26T10:57:29.626Z,93.99
2019-01-26T10:58:28.273Z,94.08
2019-01-26T10:59:26.836Z,94.37
2019-01-26T11:00:25.412Z,94.37
2019-01-26T11:01:24.416Z,94.65
2019-01-26T11:02:23.067Z,95.03
2019-01-26T11:03:21.616Z,95.41
2019-01-26T11:06:02.139Z,94.84
2019-01-26T11:07:00.815Z,94.74
2019-01-26T11:07:59.354Z,94.65
2019-01-26T11:08:58.221Z,94.08
2019-01-26T11:09:56.786Z,94.18
2019-01-26T11:12:19.990Z,94.18
2019-01-26T11:13:18.735Z,94.46
2019-01-26T11:14:17.316Z,94.18
2019-01-26T11:15:16.102Z,93.79
2019-01-26T11:16:14.823Z,94.27
2019-01-26T11:17:13.348Z,94.37
2019-01-26T11:18:11.992Z,94.18
2019-01-26T11:19:10.700Z,94.84
2019-01-26T11:20:09.354Z,95.41
2019-01-26T11:21:08.168Z,95.41
2019-01-26T11:22:07.681Z,95.7
2019-01-26T11:23:06.471Z,94.46
2019-01-26T11:24:05.218Z,94.93
2019-01-26T11:25:04.260Z,94.65
2019-01-26T11:26:03.047Z,94.56
2019-01-26T11:27:01.648Z,95.03
2019-01-26T11:28:00.250Z,95.6
2019-01-26T11:28:58.828Z,95.7
2019-01-26T11:29:57.758Z,95.7
2019-01-26T11:30:56.409Z,96.17
2019-01-26T11:31:54.932Z,95.7
2019-01-26T11:32:53.592Z,95.65
2019-01-26T11:33:52.499Z,94.89
2019-01-26T11:34:51.020Z,94.98
2019-01-26T11:35:49.804Z,95.08
2019-01-26T11:36:48.558Z,94.98
2019-01-26T11:37:47.132Z,94.6
2019-01-26T11:38:45.766Z,94.13
2019-01-26T11:39:44.588Z,94.13
2019-01-26T11:40:43.311Z,94.03
2019-01-26T11:41:42.371Z,94.32
2019-01-26T11:42:40.925Z,94.32
2019-01-26T11:43:39.928Z,94.42
2019-01-26T11:44:38.569Z,94.22
2019-01-26T11:45:37.240Z,94.51
2019-01-26T11:46:35.927Z,94.03
2019-01-26T11:47:34.604Z,94.22
2019-01-26T11:48:33.119Z,94.98
2019-01-26T11:49:31.768Z,95.65
2019-01-26T11:50:30.430Z,96.69
2019-01-26T11:51:28.975Z,97.17
2019-01-26T11:52:27.878Z,97.27
2019-01-26T11:53:26.603Z,96.98
2019-01-26T11:54:25.145Z,97.93
2019-01-26T11:55:24.093Z,98.41
2019-01-26T11:56:22.685Z,98.45
2019-01-26T11:57:21.269Z,98.64
2019-01-26T11:58:20.073Z,99.11
2019-01-26T11:59:18.797Z,99.99
2019-01-26T12:00:17.213Z,99.78
2019-01-26T12:01:16.171Z,99.99
2019-01-26T12:02:14.793Z,99.99
2019-01-26T12:03:13.468Z,99.99
2019-01-26T12:04:12.161Z,99.99
2019-01-26T12:05:10.774Z,99.99
2019-01-26T12:06:09.540Z,99.99
2019-01-26T12:07:08.278Z,99.99
2019-01-26T12:08:06.826Z,99.99
2019-01-26T12:09:05.497Z,99.99
2019-01-26T12:10:04.228Z,99.99
2019-01-26T12:11:02.803Z,99.99
2019-01-26T12:12:01.537Z,99.99
2019-01-26T12:13:00.303Z,99.99
2019-01-26T12:13:58.858Z,99.99
2019-01-26T12:14:57.385Z,99.99
2019-01-26T12:15:56.260Z,99.99
2019-01-26T12:16:54.804Z,99.99
2019-01-26T12:17:53.368Z,99.99
2019-01-26T12:18:51.978Z,99.99
2019-01-26T12:19:50.590Z,99.99
2019-01-26T12:20:49.134Z,99.99
2019-01-26T12:23:33.691Z,99.99
2019-01-26T12:24:32.337Z,99.99
2019-01-26T12:27:53.602Z,99.99
2019-01-26T12:28:52.267Z,99.99
2019-01-26T12:29:50.909Z,99.99
2019-01-26T12:30:49.571Z,99.99
2019-01-26T12:31:48.393Z,99.99
2019-01-26T12:32:47.267Z,99.99
2019-01-26T12:33:46.099Z,99.99
2019-01-26T12:34:44.732Z,99.99
2019-01-26T12:35:44.168Z,99.99
2019-01-26T12:36:41.871Z,99.99
2019-01-26T12:37:40.433Z,99.99
2019-01-26T12:38:38.972Z,99.99
2019-01-26T12:39:37.519Z,99.99
2019-01-26T12:40:36.143Z,99.99
2019-01-26T12:41:34.686Z,99.99
2019-01-26T12:42:33.227Z,99.99
2019-01-26T12:43:31.987Z,99.99
2019-01-26T12:44:30.675Z,99.99
2019-01-26T12:45:29.225Z,99.99
2019-01-26T12:46:27.853Z,99.99
2019-01-26T12:47:26.537Z,99.99
2019-01-26T12:48:25.195Z,99.99
2019-01-26T12:49:29.452Z,99.99
2019-01-26T12:50:22.916Z,99.99
2019-01-26T12:52:38.156Z,99.99
2019-01-26T12:53:36.741Z,99.99
2019-01-26T12:54:35.483Z,99.99
2019-01-26T12:55:34.144Z,99.99
2019-01-26T12:56:32.760Z,99.99
2019-01-26T12:57:31.323Z,99.99
2019-01-26T12:58:29.832Z,99.99
2019-01-26T12:59:28.476Z,99.99
2019-01-26T13:00:27.011Z,99.99
2019-01-26T13:01:25.810Z,99.99
2019-01-26T13:02:24.510Z,99.99
2019-01-26T13:03:23.066Z,99.99
2019-01-26T13:04:22.311Z,99.99
2019-01-26T13:05:20.878Z,99.99
2019-01-26T13:06:19.408Z,99.99
2019-01-26T13:07:18.214Z,99.99
2019-01-26T13:08:16.829Z,99.99
2019-01-26T13:09:15.369Z,99.99
2019-01-26T13:10:13.940Z,99.99
2019-01-26T13:11:12.533Z,99.99
2019-01-26T13:12:11.079Z,99.99
2019-01-26T13:13:10.019Z,99.99
2019-01-26T13:14:08.734Z,99.99
2019-01-26T13:15:07.268Z,99.99
2019-01-26T13:16:06.123Z,99.99
2019-01-26T13:17:04.662Z,99.99
2019-01-26T13:18:03.222Z,99.99
2019-01-26T13:19:02.070Z,99.99
2019-01-26T13:20:00.789Z,99.99
2019-01-26T13:20:59.355Z,99.99
2019-01-26T13:21:58.200Z,99.99
2019-01-26T13:22:56.918Z,99.99
2019-01-26T13:23:55.602Z,99.99
2019-01-26T13:24:54.613Z,99.99
2019-01-26T13:25:53.186Z,99.99
2019-01-26T13:26:51.726Z,99.99
2019-01-26T13:27:50.269Z,99.99
2019-01-26T13:30:30.740Z,99.99
2019-01-26T13:31:29.392Z,99.99
2019-01-26T13:32:28.076Z,99.99
2019-01-26T13:33:26.722Z,99.99
2019-01-26T13:34:25.304Z,99.99
2019-01-26T13:35:24.173Z,99.99
2019-01-26T13:36:22.725Z,99.99
2019-01-26T13:37:21.288Z,99.99
2019-01-26T13:38:20.109Z,99.99
2019-01-26T13:39:18.813Z,99.99
2019-01-26T13:40:17.396Z,99.99
2019-01-26T13:41:16.331Z,99.99
2019-01-26T13:42:14.850Z,99.99
2019-01-26T13:43:13.415Z,99.99
2019-01-26T13:44:12.251Z,99.99
2019-01-26T13:45:10.884Z,99.99
2019-01-26T13:46:09.410Z,99.99
2019-01-26T13:48:53.712Z,99.99
2019-01-26T13:49:52.570Z,99.99
2019-01-26T13:50:51.147Z,99.99
2019-01-26T13:51:49.786Z,99.99
2019-01-26T13:52:48.704Z,99.99
2019-01-26T13:53:47.279Z,99.99
2019-01-26T13:54:46.205Z,99.99
2019-01-26T13:55:44.878Z,99.99
2019-01-26T13:56:43.680Z,99.99
2019-01-26T13:57:42.443Z,99.99
2019-01-26T13:58:41.010Z,99.99
2019-01-26T13:59:39.657Z,99.99
2019-01-26T14:00:38.325Z,99.99
2019-01-26T14:01:36.864Z,99.99
2019-01-26T14:02:35.542Z,99.99